Pagrindinis puslapis
METAR-TAF:

METAR-TAF

Oro uostai :

Kišiniovas, Moldavija

platuma: 46-55-40N, ilguma: 028-55-51E, Aukštis: 122 m

Dabartinis oras

Ataskaita buvo paskelbta 33 minutes, ne 21:30 UTC
Vėjas 8 kt iš Vakarų/Pietvakarių
Temperatūra 5°C
Drėgmė 75%
Slėgis 1019 hPa
Matomumas 10 km arba daugiau
nėra debesų žemiau 1500 m ir nėra kamuolinių lietaus debesų

METAR: LUKK 152130Z 24008KT CAVOK 05/01 Q1019 R08/D NOSIG

Laikas: 00:03 (22:03 UTC)

Prognozė

Ataskaita buvo paskelbta 4 valandos ir 43 minutes, ne 17:20 UTC
Prognozė galioja nuo 15 metu 18 UTC su 16 metu 18 UTC
Vėjas 8 kt iš Pietų/Pietvakarių
Matomumas 10 km arba daugiau
nėra debesų žemiau 1500 m ir nėra kamuolinių lietaus debesų
Laikinai
nuo 16 metu 02 UTC su 16 metu 07 UTC
Matomumas: 3000 m
rūkana

TAF: LUKK 151720Z 1518/1618 21008KT CAVOK TEMPO 1602/1607 3000 BR

Orai ataskaitas ir orų prognozės (METAR, TAF).

turimą stotys yra geltonos ir raudonos taškus žemėlapyje.

Perkelti pele per norėdami pamatyti stoties vardą.

Tada spustelėkite, norėdami matyti oro stebėjimo ir prognozės.

Norėdami pakeisti žemėlapį: spustelėkite ant žalios mygtukų su juodo kryžiaus žemyn,; žalią mygtuką su brūkšneliu, jei norite nutolinti; arba žalių rodyklių gretimoms žemėlapius.


METAR-TAF: